Time;durP1;ratioP1;P1;durP2;ratioP2;P2;SDS_P1;SDS_P2;PMS_P1;PMS_P2;Temp;Humidity;BMP_temperature;BMP_pressure;BME280_temperature;BME280_humidity;BME280_pressure;Samples;Min_cycle;Max_cycle;Signal;HPM_P1;HPM_P2
2022/09/11 00:01:21;;;;;;;53.85;34.13;;;13.90;99.90;;;;;;4946594;28;212487;-70
2022/09/11 00:03:48;;;;;;;51.72;33.60;;;13.90;99.90;;;;;;4987075;28;20046;-69
2022/09/11 00:06:21;;;;;;;51.20;33.83;;;13.90;99.90;;;;;;4937285;28;209960;-69
2022/09/11 00:08:59;;;;;;;41.47;29.10;;;13.90;99.90;;;;;;4982828;28;20065;-69
2022/09/11 00:11:27;;;;;;;45.70;30.95;;;13.90;99.90;;;;;;4940039;28;209401;-69
2022/09/11 00:13:55;;;;;;;41.30;28.98;;;13.90;99.90;;;;;;4986092;28;20054;-68
2022/09/11 00:16:23;;;;;;;40.15;29.00;;;13.80;99.90;;;;;;4942392;28;212387;-69
2022/09/11 00:18:49;;;;;;;40.03;26.08;;;13.80;99.90;;;;;;4982300;28;20062;-68
2022/09/11 00:21:17;;;;;;;39.35;27.35;;;13.80;99.90;;;;;;4952377;28;213552;-69
2022/09/11 00:23:43;;;;;;;44.83;29.73;;;13.80;99.90;;;;;;4986861;28;20066;-69
2022/09/11 00:26:09;;;;;;;50.67;32.55;;;13.80;99.90;;;;;;4939167;28;206610;-69
2022/09/11 00:28:36;;;;;;;44.33;30.88;;;13.70;99.90;;;;;;4980864;28;20455;-68
2022/09/11 00:31:06;;;;;;;41.08;29.50;;;13.80;99.90;;;;;;4932029;28;215593;-69
2022/09/11 00:33:33;;;;;;;51.35;31.60;;;13.70;99.90;;;;;;4985565;28;20408;-70
2022/09/11 00:36:06;;;;;;;46.50;31.63;;;13.70;99.90;;;;;;4955621;28;213917;-69
2022/09/11 00:38:35;;;;;;;58.00;35.20;;;13.70;99.90;;;;;;4984792;28;20058;-70
2022/09/11 00:41:03;;;;;;;49.53;33.20;;;13.70;99.90;;;;;;4952779;28;206356;-70
2022/09/11 00:43:58;;;;;;;42.42;29.08;;;13.70;99.90;;;;;;4991182;28;20550;-68
2022/09/11 00:46:46;;;;;;;41.15;28.00;;;13.70;99.90;;;;;;4953768;28;213731;-69
2022/09/11 00:49:19;;;;;;;52.13;33.00;;;13.70;99.90;;;;;;4984514;28;20082;-69
2022/09/11 00:51:58;;;;;;;60.20;33.72;;;13.70;99.90;;;;;;4931081;28;206978;-69
2022/09/11 00:54:37;;;;;;;41.83;30.23;;;13.70;99.90;;;;;;4992658;28;20057;-69
2022/09/11 00:57:06;;;;;;;55.55;33.13;;;13.70;99.90;;;;;;4935432;28;206551;-69
2022/09/11 00:59:33;;;;;;;45.72;29.75;;;13.60;99.90;;;;;;4984702;28;20579;-67
2022/09/11 01:02:00;;;;;;;47.28;32.22;;;13.70;99.90;;;;;;4949865;28;208539;-69
2022/09/11 01:04:28;;;;;;;51.10;34.47;;;13.60;99.90;;;;;;5003997;28;20050;-70
2022/09/11 01:06:56;;;;;;;55.97;35.63;;;13.70;99.90;;;;;;4944914;28;202497;-69
2022/09/11 01:09:28;;;;;;;53.60;34.13;;;13.70;99.90;;;;;;4986322;28;20062;-70
2022/09/11 01:12:23;;;;;;;44.38;30.17;;;13.60;99.90;;;;;;4953941;28;209295;-69
2022/09/11 01:14:58;;;;;;;40.42;28.15;;;13.60;99.90;;;;;;4981906;28;20515;-70
2022/09/11 01:17:27;;;;;;;56.28;35.38;;;13.60;99.90;;;;;;4933558;28;206965;-70
2022/09/11 01:20:14;;;;;;;43.83;29.95;;;13.60;99.90;;;;;;4984718;28;20057;-69
2022/09/11 01:23:01;;;;;;;47.63;31.23;;;13.60;99.90;;;;;;4915585;28;206343;-69
2022/09/11 01:25:27;;;;;;;42.97;30.52;;;13.70;99.90;;;;;;4922338;28;215412;-69
2022/09/11 01:27:59;;;;;;;53.40;33.65;;;13.70;99.90;;;;;;4969606;28;20061;-70
2022/09/11 01:30:40;;;;;;;52.25;33.10;;;13.60;99.90;;;;;;4922946;28;208932;-68
2022/09/11 01:33:29;;;;;;;45.97;31.33;;;13.70;99.90;;;;;;4964879;28;20157;-69
2022/09/11 01:36:05;;;;;;;45.75;32.28;;;13.70;99.90;;;;;;4929907;28;208646;-69
2022/09/11 01:38:37;;;;;;;41.85;29.75;;;13.80;99.90;;;;;;4958566;28;20061;-69
2022/09/11 01:41:14;;;;;;;44.88;29.48;;;13.80;99.90;;;;;;4924409;28;211161;-68
2022/09/11 01:43:53;;;;;;;36.03;26.50;;;13.80;99.90;;;;;;4968981;28;20058;-70
2022/09/11 01:46:23;;;;;;;36.15;26.35;;;13.80;99.90;;;;;;4930462;28;210090;-69
2022/09/11 01:49:09;;;;;;;32.08;23.90;;;13.80;99.90;;;;;;4977789;28;20065;-69
2022/09/11 01:51:38;;;;;;;33.40;23.98;;;13.70;99.90;;;;;;4937982;28;213132;-69
2022/09/11 01:54:13;;;;;;;32.10;23.55;;;13.70;99.90;;;;;;4979078;28;20050;-69
2022/09/11 01:56:46;;;;;;;34.83;24.30;;;13.70;99.90;;;;;;4930252;28;205911;-70
2022/09/11 01:59:16;;;;;;;33.95;24.60;;;13.60;99.90;;;;;;4960793;28;20057;-69
2022/09/11 02:01:49;;;;;;;32.83;24.17;;;13.60;99.90;;;;;;4962452;28;30348;-70
2022/09/11 02:04:32;;;;;;;34.78;23.85;;;13.50;99.90;;;;;;4985583;28;20050;-69
2022/09/11 02:07:13;;;;;;;31.00;23.00;;;13.50;99.90;;;;;;4917989;28;210287;-69
2022/09/11 02:09:55;;;;;;;31.73;23.52;;;13.50;99.90;;;;;;4986263;28;20054;-69
2022/09/11 02:12:27;;;;;;;33.53;23.85;;;13.50;99.90;;;;;;4909201;28;207053;-71
2022/09/11 02:14:54;;;;;;;37.67;24.58;;;13.50;99.90;;;;;;4950487;28;20058;-70
2022/09/11 02:17:21;;;;;;;32.75;24.38;;;13.40;99.90;;;;;;4917744;28;207286;-70
2022/09/11 02:19:48;;;;;;;27.60;21.52;;;13.40;99.90;;;;;;4965736;28;20058;-70
2022/09/11 02:22:14;;;;;;;31.98;23.10;;;13.40;99.90;;;;;;4917405;28;148621;-69
2022/09/11 02:24:40;;;;;;;30.08;22.58;;;13.40;99.90;;;;;;4966495;28;20085;-70
2022/09/11 02:27:09;;;;;;;34.17;23.15;;;13.30;99.90;;;;;;4945149;28;209419;-69
2022/09/11 02:29:36;;;;;;;29.20;21.85;;;13.30;99.90;;;;;;4967092;28;20059;-70
2022/09/11 02:32:02;;;;;;;31.55;21.85;;;13.30;99.90;;;;;;4929288;28;205783;-70
2022/09/11 02:34:34;;;;;;;37.00;24.65;;;13.20;99.90;;;;;;4982933;28;20050;-69
2022/09/11 02:37:31;;;;;;;29.70;21.65;;;13.20;99.90;;;;;;4939143;28;209420;-69
2022/09/11 02:40:15;;;;;;;28.67;21.08;;;13.20;99.90;;;;;;4969614;28;209084;-69
2022/09/11 02:43:18;;;;;;;33.30;24.40;;;13.20;99.90;;;;;;4961161;28;20530;-70
2022/09/11 02:46:00;;;;;;;31.85;21.23;;;13.10;99.90;;;;;;4950079;28;205378;-70
2022/09/11 02:48:33;;;;;;;26.95;18.73;;;13.10;99.90;;;;;;4976863;28;20407;-70
2022/09/11 02:51:16;;;;;;;25.60;19.85;;;13.00;99.90;;;;;;4943678;28;209887;-70
2022/09/11 02:54:16;;;;;;;29.98;22.65;;;13.00;99.90;;;;;;4988483;28;20629;-69
2022/09/11 02:57:27;;;;;;;29.70;22.27;;;13.00;99.90;;;;;;4947671;28;207238;-69
2022/09/11 03:00:00;;;;;;;35.58;24.02;;;13.00;99.90;;;;;;4945766;28;21121;-70
2022/09/11 03:02:29;;;;;;;36.42;24.83;;;13.00;99.90;;;;;;4887358;29;151165;-69
2022/09/11 03:04:56;;;;;;;30.88;22.00;;;13.00;99.90;;;;;;4928120;28;89526;-70
2022/09/11 03:07:26;;;;;;;28.05;21.55;;;13.00;99.90;;;;;;4912907;28;206113;-69
2022/09/11 03:09:52;;;;;;;29.30;21.42;;;13.00;99.90;;;;;;4944832;28;20047;-70
2022/09/11 03:12:18;;;;;;;29.23;22.50;;;13.00;99.90;;;;;;4884797;28;197330;-70
2022/09/11 03:14:44;;;;;;;32.20;22.73;;;12.90;99.90;;;;;;4928326;29;20062;-69
2022/09/11 03:17:10;;;;;;;30.33;22.60;;;13.00;99.90;;;;;;4882794;28;36173;-70
2022/09/11 03:19:36;;;;;;;30.48;20.90;;;13.00;99.90;;;;;;4910233;29;20047;-69
2022/09/11 03:22:02;;;;;;;29.60;20.45;;;12.90;99.90;;;;;;4883626;29;207301;-70
2022/09/11 03:24:29;;;;;;;25.98;19.08;;;13.00;99.90;;;;;;4927210;29;20055;-70
2022/09/11 03:26:55;;;;;;;27.40;20.35;;;12.90;99.90;;;;;;4882160;29;206083;-70
2022/09/11 03:29:21;;;;;;;26.00;18.67;;;12.90;99.90;;;;;;4929597;29;20070;-69
2022/09/11 03:31:47;;;;;;;26.33;17.75;;;12.90;99.90;;;;;;4874409;28;206629;-68
2022/09/11 03:34:13;;;;;;;24.25;17.15;;;12.90;99.90;;;;;;4934109;29;20064;-69
2022/09/11 03:36:39;;;;;;;28.98;18.48;;;12.80;99.90;;;;;;4927243;28;165873;-70
2022/09/11 03:39:06;;;;;;;31.27;19.02;;;12.80;99.90;;;;;;4995543;28;20054;-68
2022/09/11 03:41:32;;;;;;;31.63;16.38;;;12.80;99.90;;;;;;4947784;28;186242;-68
2022/09/11 03:43:58;;;;;;;20.08;14.20;;;12.70;99.90;;;;;;4981910;28;20427;-69
2022/09/11 03:46:24;;;;;;;18.98;14.50;;;12.70;99.90;;;;;;4940261;28;213446;-69
2022/09/11 03:48:51;;;;;;;19.20;14.77;;;12.70;99.90;;;;;;4995756;28;20080;-68
2022/09/11 03:51:17;;;;;;;20.00;14.20;;;12.70;99.90;;;;;;4949858;28;209072;-69
2022/09/11 03:53:43;;;;;;;21.50;14.32;;;12.70;99.90;;;;;;4985921;28;20058;-68
2022/09/11 03:56:10;;;;;;;18.77;14.02;;;12.60;99.90;;;;;;4943350;28;207261;-69
2022/09/11 03:58:37;;;;;;;18.75;13.93;;;12.60;99.90;;;;;;4991255;28;20058;-69
2022/09/11 04:01:14;;;;;;;20.63;14.10;;;12.60;99.90;;;;;;4944596;28;210163;-69
2022/09/11 04:03:41;;;;;;;19.70;12.95;;;12.60;99.90;;;;;;4984393;28;20050;-71
2022/09/11 04:06:07;;;;;;;18.98;13.52;;;12.60;99.90;;;;;;4960306;28;212560;-68
2022/09/11 04:08:33;;;;;;;19.13;14.52;;;12.60;99.90;;;;;;4990836;28;20073;-69
2022/09/11 04:11:02;;;;;;;18.45;13.25;;;12.50;99.90;;;;;;4940377;28;200202;-69
2022/09/11 04:13:34;;;;;;;17.25;13.23;;;12.60;99.90;;;;;;4983522;28;20062;-69
2022/09/11 04:16:06;;;;;;;17.77;12.38;;;12.60;99.90;;;;;;4941167;28;210625;-68
2022/09/11 04:18:35;;;;;;;18.83;13.38;;;12.60;99.90;;;;;;5003918;28;20510;-69
2022/09/11 04:21:06;;;;;;;19.05;12.32;;;12.60;99.90;;;;;;4951988;28;213371;-69
2022/09/11 04:23:32;;;;;;;16.02;12.32;;;12.60;99.90;;;;;;4985870;28;20058;-69
2022/09/11 04:25:59;;;;;;;15.85;11.35;;;12.70;99.90;;;;;;4956002;28;208370;-68
2022/09/11 04:28:30;;;;;;;15.38;10.93;;;12.70;99.90;;;;;;4991476;28;20058;-69
2022/09/11 04:31:02;;;;;;;17.23;11.85;;;12.70;99.90;;;;;;4953167;28;209363;-68
2022/09/11 04:33:28;;;;;;;16.27;11.40;;;12.70;99.90;;;;;;4987319;28;20057;-68
2022/09/11 04:35:55;;;;;;;15.40;11.80;;;12.80;99.90;;;;;;4969631;28;207096;-68
2022/09/11 04:38:22;;;;;;;17.30;12.15;;;12.80;99.90;;;;;;5001280;28;20053;-69
2022/09/11 04:40:49;;;;;;;15.68;11.55;;;12.80;99.90;;;;;;4942930;28;209181;-69
2022/09/11 04:43:16;;;;;;;16.00;12.02;;;12.80;99.90;;;;;;4985887;28;20050;-69
2022/09/11 04:45:42;;;;;;;15.23;11.75;;;12.90;99.90;;;;;;4928445;28;206407;-68
2022/09/11 04:48:08;;;;;;;16.80;10.95;;;12.90;99.90;;;;;;4962947;28;20512;-69
2022/09/11 04:50:34;;;;;;;14.02;10.32;;;12.90;99.90;;;;;;4935821;28;208464;-69
2022/09/11 04:53:01;;;;;;;16.38;11.05;;;12.90;99.90;;;;;;4968963;28;20050;-69
2022/09/11 04:55:27;;;;;;;15.00;10.98;;;13.00;99.90;;;;;;4933471;28;209386;-68
2022/09/11 04:57:53;;;;;;;15.13;10.95;;;13.00;99.90;;;;;;4967436;28;20054;-69
2022/09/11 05:00:19;;;;;;;16.55;11.70;;;13.00;99.90;;;;;;4930986;28;223819;-69
2022/09/11 05:02:46;;;;;;;15.05;11.23;;;13.00;99.90;;;;;;4974886;28;20070;-69
2022/09/11 05:05:12;;;;;;;13.67;11.00;;;13.00;99.90;;;;;;4926294;28;208916;-69
2022/09/11 05:07:38;;;;;;;14.98;11.25;;;13.00;99.90;;;;;;4967016;28;20050;-69
2022/09/11 05:10:05;;;;;;;15.25;10.25;;;13.10;99.90;;;;;;4927277;28;208973;-69
2022/09/11 05:12:31;;;;;;;16.70;12.20;;;13.10;99.90;;;;;;4969638;28;20054;-69
2022/09/11 05:14:58;;;;;;;12.27;9.13;;;13.10;99.90;;;;;;4965497;28;207739;-69
2022/09/11 05:17:24;;;;;;;15.10;10.98;;;13.00;99.90;;;;;;4960803;28;47194;-69
2022/09/11 05:19:50;;;;;;;14.25;9.95;;;13.10;99.90;;;;;;4990811;28;20051;-68
2022/09/11 05:22:16;;;;;;;16.05;10.80;;;13.10;99.90;;;;;;4970757;28;208720;-69
2022/09/11 05:24:42;;;;;;;13.65;9.95;;;13.10;99.90;;;;;;4993710;28;20512;-69
2022/09/11 05:27:08;;;;;;;14.50;10.73;;;13.10;99.90;;;;;;4942036;28;207344;-69
2022/09/11 05:29:34;;;;;;;13.60;9.52;;;13.10;99.90;;;;;;5006777;28;20050;-69
2022/09/11 05:32:02;;;;;;;12.75;10.02;;;13.10;99.90;;;;;;4919360;28;209877;-68
2022/09/11 05:34:28;;;;;;;13.32;10.50;;;13.10;99.90;;;;;;4997799;28;20062;-68
2022/09/11 05:37:01;;;;;;;13.50;10.18;;;13.10;99.90;;;;;;4933464;28;205163;-69
2022/09/11 05:39:27;;;;;;;11.95;9.45;;;13.10;99.90;;;;;;5006728;28;20080;-69
2022/09/11 05:41:56;;;;;;;14.38;10.43;;;13.10;99.90;;;;;;4972545;28;210127;-69
2022/09/11 05:44:22;;;;;;;12.75;9.25;;;13.10;99.90;;;;;;5000932;28;20083;-69
2022/09/11 05:46:48;;;;;;;13.98;9.73;;;13.10;99.90;;;;;;4965475;28;209670;-69
2022/09/11 05:49:14;;;;;;;15.45;11.55;;;13.10;99.90;;;;;;4999668;28;20053;-69
2022/09/11 05:51:41;;;;;;;14.82;10.45;;;13.10;99.90;;;;;;4937718;28;227712;-70
2022/09/11 05:54:07;;;;;;;14.23;11.18;;;13.20;99.90;;;;;;4981427;28;20062;-69
2022/09/11 05:56:33;;;;;;;12.88;9.57;;;13.20;99.90;;;;;;4954469;28;214490;-70
2022/09/11 05:59:01;;;;;;;14.57;10.40;;;13.20;99.90;;;;;;4983344;28;20050;-69
2022/09/11 06:01:28;;;;;;;15.05;11.52;;;13.20;99.90;;;;;;4932469;28;205858;-68
2022/09/11 06:03:54;;;;;;;15.15;11.05;;;13.20;99.90;;;;;;4959969;28;20062;-69
2022/09/11 06:06:21;;;;;;;19.60;12.43;;;13.30;99.90;;;;;;4933574;28;211301;-69
2022/09/11 06:08:49;;;;;;;16.77;12.52;;;13.30;99.90;;;;;;4978756;28;20074;-69
2022/09/11 06:11:17;;;;;;;17.50;12.90;;;13.30;99.90;;;;;;4925838;28;215726;-69
2022/09/11 06:13:45;;;;;;;18.17;13.30;;;13.40;99.90;;;;;;4967510;28;20066;-69
2022/09/11 06:16:13;;;;;;;18.33;13.40;;;13.40;99.90;;;;;;4918605;28;205090;-68
2022/09/11 06:18:40;;;;;;;20.15;15.57;;;13.50;99.90;;;;;;4974520;28;20058;-69
2022/09/11 06:21:09;;;;;;;23.63;16.75;;;13.50;99.90;;;;;;4927291;28;205583;-69
2022/09/11 06:23:36;;;;;;;23.40;16.92;;;13.60;99.90;;;;;;4958747;28;20058;-69
2022/09/11 06:26:10;;;;;;;18.75;14.35;;;13.70;99.90;;;;;;4915097;28;206726;-70
2022/09/11 06:28:38;;;;;;;19.27;15.68;;;13.70;99.90;;;;;;4957627;28;20059;-70
2022/09/11 06:31:06;;;;;;;24.45;17.55;;;13.80;99.90;;;;;;4943160;28;208589;-70
2022/09/11 06:33:38;;;;;;;24.55;19.58;;;13.90;99.90;;;;;;4996376;28;20058;-69
2022/09/11 06:36:09;;;;;;;26.70;20.08;;;14.00;99.90;;;;;;4941140;28;206237;-69
2022/09/11 06:38:37;;;;;;;26.75;20.70;;;14.40;99.90;;;;;;4992713;28;20088;-69
2022/09/11 06:41:06;;;;;;;28.60;20.42;;;14.90;99.90;;;;;;4942684;28;225760;-70
2022/09/11 06:43:33;;;;;;;21.55;17.20;;;15.40;99.90;;;;;;4979676;28;20062;-70
2022/09/11 06:46:08;;;;;;;22.17;15.05;;;15.80;99.90;;;;;;4948730;28;195619;-70
2022/09/11 06:48:35;;;;;;;18.02;13.00;;;16.20;99.90;;;;;;5001402;28;20101;-69
2022/09/11 06:51:03;;;;;;;17.35;12.38;;;16.50;99.90;;;;;;4938084;28;210687;-70
2022/09/11 06:53:29;;;;;;;15.90;11.32;;;16.70;99.90;;;;;;5006043;28;20069;-70
2022/09/11 06:56:02;;;;;;;14.98;10.38;;;16.90;99.90;;;;;;4944768;28;211409;-70
2022/09/11 06:58:29;;;;;;;14.60;9.63;;;17.30;99.90;;;;;;5006392;28;20861;-70
2022/09/11 07:01:04;;;;;;;12.60;8.85;;;17.60;99.90;;;;;;4947991;28;210296;-70
2022/09/11 07:03:30;;;;;;;13.57;8.63;;;18.00;99.90;;;;;;4975196;28;20054;-70
2022/09/11 07:05:57;;;;;;;13.20;7.85;;;18.20;99.90;;;;;;4950202;28;206976;-71
2022/09/11 07:08:23;;;;;;;11.05;6.80;;;18.50;99.90;;;;;;4979056;28;20062;-70
2022/09/11 07:10:50;;;;;;;9.95;6.20;;;18.70;99.90;;;;;;4958602;28;211686;-70
2022/09/11 07:13:16;;;;;;;10.43;5.60;;;18.90;99.90;;;;;;5009086;28;20054;-70
2022/09/11 07:15:42;;;;;;;9.63;5.88;;;19.00;99.90;;;;;;4941985;28;209614;-70
2022/09/11 07:18:08;;;;;;;10.50;6.32;;;19.20;99.90;;;;;;5009968;28;20059;-69
2022/09/11 07:20:34;;;;;;;9.52;5.97;;;19.50;99.90;;;;;;4966906;28;168465;-69
2022/09/11 07:23:00;;;;;;;11.02;6.45;;;19.80;99.90;;;;;;4998117;28;20065;-70
2022/09/11 07:25:26;;;;;;;9.90;6.43;;;19.90;99.90;;;;;;4951047;28;205887;-69
2022/09/11 07:27:53;;;;;;;11.00;6.07;;;20.10;99.90;;;;;;4992047;28;20035;-70
2022/09/11 07:30:20;;;;;;;10.77;6.80;;;20.30;99.90;;;;;;4954546;28;207307;-69
2022/09/11 07:32:48;;;;;;;10.80;6.72;;;20.40;99.90;;;;;;4991165;28;20062;-69
2022/09/11 07:35:20;;;;;;;10.57;6.38;;;20.50;99.90;;;;;;4950999;28;222886;-69
2022/09/11 07:37:49;;;;;;;11.18;6.68;;;20.70;99.90;;;;;;4990166;28;20050;-69
2022/09/11 07:40:15;;;;;;;14.73;6.65;;;20.80;99.90;;;;;;4959357;28;209411;-70
2022/09/11 07:42:41;;;;;;;11.02;6.78;;;21.00;99.90;;;;;;4986947;28;20054;-69
2022/09/11 07:45:09;;;;;;;11.83;6.50;;;21.30;99.90;;;;;;4949804;28;208726;-69
2022/09/11 07:47:35;;;;;;;9.93;6.15;;;21.80;99.90;;;;;;4986072;28;20043;-70
2022/09/11 07:50:01;;;;;;;14.23;6.45;;;21.90;99.90;;;;;;4968894;28;209804;-70
2022/09/11 07:52:27;;;;;;;12.68;6.28;;;22.00;99.90;;;;;;5004323;28;20527;-70
2022/09/11 07:54:53;;;;;;;12.52;6.15;;;22.20;99.90;;;;;;4993887;28;20054;-69
2022/09/11 07:57:20;;;;;;;11.65;6.20;;;22.50;99.90;;;;;;4972378;28;192724;-70
2022/09/11 07:59:47;;;;;;;11.23;6.22;;;22.80;99.90;;;;;;4992301;28;20066;-70
2022/09/11 08:02:13;;;;;;;13.45;6.38;;;23.10;99.90;;;;;;4954921;28;209464;-70
2022/09/11 08:04:39;;;;;;;11.75;5.72;;;23.20;99.90;;;;;;4998037;28;20064;-70
2022/09/11 08:07:05;;;;;;;10.85;6.10;;;23.30;99.90;;;;;;4938591;28;210070;-70
2022/09/11 08:09:31;;;;;;;10.70;5.93;;;23.50;99.90;;;;;;4990029;28;20057;-69
2022/09/11 08:11:58;;;;;;;10.52;5.40;;;23.70;99.90;;;;;;4952118;28;152106;-70
2022/09/11 08:14:26;;;;;;;9.40;5.03;;;24.10;99.90;;;;;;4983119;28;20054;-69
2022/09/11 08:16:53;;;;;;;10.30;4.85;;;24.50;99.90;;;;;;4934762;28;209140;-70
2022/09/11 08:19:21;;;;;;;11.02;4.70;;;24.70;99.90;;;;;;4986421;28;20057;-68
2022/09/11 08:21:49;;;;;;;8.77;4.32;;;24.70;99.90;;;;;;4935124;28;210931;-69
2022/09/11 08:24:16;;;;;;;8.98;3.85;;;24.80;99.90;;;;;;4977749;28;20065;-70
2022/09/11 08:26:43;;;;;;;9.07;3.83;;;24.90;99.90;;;;;;4952430;28;211190;-69
2022/09/11 08:29:09;;;;;;;9.35;3.35;;;25.10;99.90;;;;;;4984482;28;20054;-69
2022/09/11 08:31:35;;;;;;;10.13;3.38;;;25.10;99.90;;;;;;4944883;28;209181;-69
2022/09/11 08:34:02;;;;;;;9.60;3.10;;;25.20;99.90;;;;;;4960709;28;20061;-69
2022/09/11 08:36:28;;;;;;;8.35;2.80;;;25.00;99.90;;;;;;4930943;28;223063;-69
2022/09/11 08:38:54;;;;;;;10.10;3.50;;;24.70;99.90;;;;;;4976680;28;20054;-70
2022/09/11 08:41:41;;;;;;;8.48;2.90;;;24.50;99.90;;;;;;4945693;28;213293;-69
2022/09/11 08:44:31;;;;;;;9.65;3.03;;;24.50;99.90;;;;;;4981244;28;20049;-69
2022/09/11 08:47:07;;;;;;;10.13;3.40;;;24.60;99.90;;;;;;4926580;28;196460;-70
2022/09/11 08:49:41;;;;;;;10.40;3.70;;;24.30;99.90;;;;;;4975183;28;20050;-69
2022/09/11 08:52:11;;;;;;;8.30;3.42;;;24.70;99.90;;;;;;4934972;28;209685;-69
2022/09/11 08:54:40;;;;;;;9.82;3.63;;;24.90;99.90;;;;;;4997184;28;20423;-69
2022/09/11 08:57:15;;;;;;;8.20;3.20;;;24.40;99.90;;;;;;4928044;28;212064;-69
2022/09/11 09:00:06;;;;;;;10.40;3.55;;;23.90;99.90;;;;;;4983162;28;20061;-69
2022/09/11 09:02:49;;;;;;;9.05;3.08;;;23.50;99.90;;;;;;4906024;28;205438;-69
2022/09/11 09:05:25;;;;;;;8.95;3.13;;;23.00;99.90;;;;;;4938447;28;208724;-67
2022/09/11 09:07:51;;;;;;;9.38;3.25;;;22.60;99.90;;;;;;4993906;28;20046;-69
2022/09/11 09:10:32;;;;;;;8.57;2.53;;;22.40;99.90;;;;;;4932058;28;213182;-69
2022/09/11 09:12:58;;;;;;;9.95;3.15;;;23.10;99.90;;;;;;4988137;28;20058;-70
2022/09/11 09:15:52;;;;;;;9.10;3.15;;;24.10;99.90;;;;;;4935028;28;212153;-70
2022/09/11 09:18:45;;;;;;;8.48;2.67;;;24.30;99.90;;;;;;4982481;28;20054;-70
2022/09/11 09:21:23;;;;;;;9.40;1.88;;;24.10;99.90;;;;;;4926007;28;209644;-70
2022/09/11 09:24:00;;;;;;;7.53;2.00;;;23.80;99.90;;;;;;4969061;28;20127;-70
2022/09/11 09:26:32;;;;;;;8.95;2.33;;;23.50;99.90;;;;;;4910905;28;209205;-70
2022/09/11 09:29:03;;;;;;;7.40;2.03;;;23.30;99.90;;;;;;4957826;28;20318;-69
2022/09/11 09:31:32;;;;;;;8.23;2.53;;;23.10;99.90;;;;;;4926619;28;222380;-69
2022/09/11 09:34:08;;;;;;;7.65;2.30;;;23.10;99.90;;;;;;4969891;28;20047;-69
2022/09/11 09:36:42;;;;;;;8.30;2.22;;;24.00;99.90;;;;;;4916042;28;212432;-69
2022/09/11 09:39:17;;;;;;;7.63;2.10;;;25.00;99.90;;;;;;4963428;28;20483;-71
2022/09/11 09:42:20;;;;;;;7.28;2.05;;;25.80;99.90;;;;;;4913005;28;219094;-71
2022/09/11 09:44:49;;;;;;;9.98;2.20;;;26.70;99.90;;;;;;4963126;28;20054;-71
2022/09/11 09:47:16;;;;;;;9.40;2.10;;;27.50;99.90;;;;;;4927273;28;209244;-71
2022/09/11 09:49:44;;;;;;;8.85;2.55;;;27.80;98.10;;;;;;4963782;28;20055;-71
2022/09/11 09:52:21;;;;;;;7.55;2.05;;;27.60;98.40;;;;;;4929289;28;209426;-68
2022/09/11 09:55:01;;;;;;;8.13;2.00;;;28.00;98.10;;;;;;4961195;28;20061;-68
2022/09/11 09:57:32;;;;;;;;;;;28.50;96.90;;;;;;4934368;28;209229;-69
2022/09/11 10:00:09;;;;;;;6.90;1.80;;;28.60;94.30;;;;;;4955324;28;212455;-68
2022/09/11 10:02:52;;;;;;;6.10;1.50;;;28.60;97.10;;;;;;4950338;28;209208;-68
2022/09/11 10:05:27;;;;;;;7.05;1.60;;;28.80;95.00;;;;;;4930005;28;210388;-68
2022/09/11 10:08:19;;;;;;;6.82;1.45;;;28.00;95.40;;;;;;4963366;28;20508;-68
2022/09/11 10:10:56;;;;;;;6.60;1.67;;;27.90;95.50;;;;;;4926728;28;210397;-69
2022/09/11 10:13:26;;;;;;;6.60;1.60;;;27.50;95.00;;;;;;4987130;28;20054;-69
2022/09/11 10:15:59;;;;;;;6.97;1.50;;;27.10;95.00;;;;;;4937658;28;209834;-70
2022/09/11 10:18:28;;;;;;;6.63;1.50;;;27.00;94.80;;;;;;4985322;28;20058;-69
2022/09/11 10:21:17;;;;;;;8.30;1.67;;;26.50;94.30;;;;;;4940276;28;220060;-69
2022/09/11 10:23:50;;;;;;;7.30;1.50;;;26.20;94.40;;;;;;4971033;28;20058;-70
2022/09/11 10:26:24;;;;;;;6.65;1.73;;;25.80;94.50;;;;;;4932485;28;212546;-69
2022/09/11 10:28:53;;;;;;;8.25;1.70;;;25.70;94.70;;;;;;4976329;28;20051;-69
2022/09/11 10:31:21;;;;;;;6.93;1.55;;;26.30;94.80;;;;;;4932702;28;208840;-70
2022/09/11 10:33:59;;;;;;;7.63;1.75;;;27.00;95.10;;;;;;4973779;28;20065;-69
2022/09/11 10:36:27;;;;;;;7.50;1.80;;;27.80;94.60;;;;;;4928991;28;209900;-69
2022/09/11 10:38:56;;;;;;;6.82;1.40;;;28.40;94.60;;;;;;4982663;28;20518;-68
2022/09/11 10:41:26;;;;;;;8.15;1.55;;;29.10;93.50;;;;;;4932339;28;137610;-70
2022/09/11 10:44:05;;;;;;;7.85;1.42;;;29.40;93.00;;;;;;4961547;28;20057;-69
2022/09/11 10:46:39;;;;;;;7.93;1.73;;;29.90;92.80;;;;;;4918273;28;209478;-70
2022/09/11 10:49:08;;;;;;;8.52;1.50;;;30.60;92.60;;;;;;4959689;28;21459;-70
2022/09/11 10:51:41;;;;;;;8.75;1.50;;;31.00;91.50;;;;;;4910793;28;223988;-70
2022/09/11 10:54:24;;;;;;;8.60;1.60;;;30.30;88.80;;;;;;4956927;28;20061;-70
2022/09/11 10:56:59;;;;;;;6.70;1.55;;;29.40;87.30;;;;;;4913807;28;207224;-70
2022/09/11 10:59:39;;;;;;;7.28;1.63;;;27.90;90.20;;;;;;4972159;28;20093;-70
2022/09/11 11:02:33;;;;;;;7.32;1.30;;;26.90;90.80;;;;;;4931343;28;215140;-69
2022/09/11 11:05:14;;;;;;;6.70;1.58;;;26.10;91.50;;;;;;4930259;28;209555;-69
2022/09/11 11:07:59;;;;;;;6.65;1.90;;;25.50;92.30;;;;;;4925094;28;206499;-70
2022/09/11 11:10:34;;;;;;;8.68;1.90;;;25.00;93.30;;;;;;4911145;28;208435;-70
2022/09/11 11:13:06;;;;;;;8.13;1.90;;;24.60;93.80;;;;;;4961305;28;20058;-69
2022/09/11 11:15:39;;;;;;;8.30;1.98;;;24.20;94.30;;;;;;4917664;28;209018;-70
2022/09/11 11:18:10;;;;;;;8.85;2.00;;;24.00;94.50;;;;;;4964628;28;20059;-70
2022/09/11 11:21:01;;;;;;;6.65;1.70;;;23.80;94.90;;;;;;4910205;28;208848;-72
2022/09/11 11:24:05;;;;;;;6.80;1.88;;;23.80;95.30;;;;;;4960270;28;20063;-70
2022/09/11 11:26:54;;;;;;;7.00;1.80;;;23.60;95.30;;;;;;4845520;29;206690;-70
2022/09/11 11:29:55;;;;;;;7.45;1.92;;;23.40;95.30;;;;;;4905208;29;20066;-70
2022/09/11 11:32:32;;;;;;;9.20;2.03;;;23.20;95.70;;;;;;4854719;29;206125;-70
2022/09/11 11:35:13;;;;;;;9.05;2.00;;;23.20;95.70;;;;;;4877622;29;213128;-70
2022/09/11 11:37:41;;;;;;;8.27;1.60;;;23.50;96.00;;;;;;4870255;29;206585;-70
2022/09/11 11:40:19;;;;;;;7.35;1.80;;;24.00;95.60;;;;;;4857857;29;207247;-70
2022/09/11 11:43:18;;;;;;;7.40;1.85;;;24.30;95.00;;;;;;4884438;29;20056;-70
2022/09/11 11:46:01;;;;;;;9.30;1.83;;;24.50;95.00;;;;;;4853304;29;208820;-69
2022/09/11 11:48:30;;;;;;;6.97;1.73;;;24.70;94.80;;;;;;4880398;29;20064;-69
2022/09/11 11:51:05;;;;;;;7.07;1.83;;;25.30;95.00;;;;;;4833237;29;206724;-70
2022/09/11 11:53:40;;;;;;;6.55;1.75;;;26.10;94.70;;;;;;4885359;29;20055;-70
2022/09/11 11:56:18;;;;;;;8.13;1.50;;;27.00;93.40;;;;;;4855756;29;115414;-70
2022/09/11 11:59:11;;;;;;;11.05;1.80;;;27.80;93.60;;;;;;4881501;29;20056;-71
2022/09/11 12:01:43;;;;;;;5.75;1.50;;;28.30;92.90;;;;;;4855205;29;157170;-71
2022/09/11 12:04:17;;;;;;;6.38;1.60;;;28.10;92.20;;;;;;4934273;28;20055;-71
2022/09/11 12:06:44;;;;;;;7.07;1.67;;;27.90;91.60;;;;;;4877116;28;220977;-73
2022/09/11 12:09:15;;;;;;;6.35;1.70;;;27.60;92.40;;;;;;4979859;28;20054;-72
2022/09/11 12:11:46;;;;;;;7.75;1.98;;;27.30;92.50;;;;;;4942407;28;206032;-72
2022/09/11 12:14:39;;;;;;;;;;;27.00;92.70;;;;;;4982282;28;20073;-72
2022/09/11 12:17:27;;;;;;;6.60;1.73;;;26.70;92.80;;;;;;4946055;28;208187;-70
2022/09/11 12:20:15;;;;;;;7.78;1.60;;;26.30;93.20;;;;;;4973798;28;20058;-70
2022/09/11 12:22:49;;;;;;;7.25;1.50;;;26.10;93.10;;;;;;4905557;28;225579;-71
2022/09/11 12:25:18;;;;;;;8.45;2.10;;;25.80;93.40;;;;;;4936145;28;207779;-70
2022/09/11 12:27:53;;;;;;;7.53;1.98;;;25.50;93.40;;;;;;4967909;28;20051;-70
2022/09/11 12:30:24;;;;;;;6.45;1.70;;;25.30;93.80;;;;;;4937336;28;206162;-71
2022/09/11 12:32:53;;;;;;;7.15;1.58;;;25.20;93.80;;;;;;4965195;28;20061;-71
2022/09/11 12:35:33;;;;;;;9.18;1.80;;;25.10;93.80;;;;;;4935986;28;209751;-71
2022/09/11 12:38:05;;;;;;;7.70;1.80;;;24.90;94.10;;;;;;4991770;28;20061;-70
2022/09/11 12:40:36;;;;;;;6.68;1.88;;;24.80;94.30;;;;;;4929427;28;209199;-71
2022/09/11 12:43:15;;;;;;;7.80;2.15;;;24.60;94.50;;;;;;4964433;28;20065;-68
2022/09/11 12:45:42;;;;;;;9.63;2.10;;;24.50;95.20;;;;;;4932605;28;208127;-70
2022/09/11 12:48:15;;;;;;;7.40;2.15;;;24.40;95.40;;;;;;4979831;28;20524;-71
2022/09/11 12:50:55;;;;;;;7.40;2.00;;;24.60;95.70;;;;;;4930343;28;209553;-71
2022/09/11 12:53:26;;;;;;;7.10;2.00;;;24.70;95.80;;;;;;4978943;28;20054;-71
2022/09/11 12:55:59;;;;;;;6.75;1.75;;;24.80;95.90;;;;;;4923340;28;209390;-70